Time;durP1;ratioP1;P1;durP2;ratioP2;P2;SDS_P1;SDS_P2;PMS_P1;PMS_P2;Temp;Humidity;BMP_temperature;BMP_pressure;BME280_temperature;BME280_humidity;BME280_pressure;Samples;Min_cycle;Max_cycle;Signal;HPM_P1;HPM_P2
2021/06/20 00:01:50;;;;;;;6.37;3.77;;;;;;;;;;5016088;28;20174;-60
2021/06/20 00:04:17;;;;;;;4.80;3.87;;;;;;;;;;4995595;28;20237;-60
2021/06/20 00:06:47;;;;;;;3.93;3.47;;;;;;;;;;5010963;28;20218;-65
2021/06/20 00:09:13;;;;;;;3.70;3.20;;;;;;;;;;5011720;28;20239;-60
2021/06/20 00:11:41;;;;;;;3.67;3.10;;;;;;;;;;5026689;28;20225;-59
2021/06/20 00:14:07;;;;;;;5.50;3.90;;;;;;;;;;5012121;28;20178;-59
2021/06/20 00:16:34;;;;;;;5.53;3.33;;;;;;;;;;5019520;28;20186;-61
2021/06/20 00:19:00;;;;;;;5.30;3.27;;;;;;;;;;4993175;28;20202;-59
2021/06/20 00:21:26;;;;;;;4.00;2.80;;;;;;;;;;5026931;28;20412;-61
2021/06/20 00:23:53;;;;;;;3.77;3.03;;;;;;;;;;5025811;28;20183;-60
2021/06/20 00:26:19;;;;;;;5.63;3.40;;;;;;;;;;5011082;28;20175;-59
2021/06/20 00:28:45;;;;;;;4.33;3.13;;;;;;;;;;5010553;28;20269;-60
2021/06/20 00:31:12;;;;;;;4.80;3.07;;;;;;;;;;5011075;28;20205;-60
2021/06/20 00:33:39;;;;;;;4.30;3.03;;;;;;;;;;5006025;28;20623;-61
2021/06/20 00:36:06;;;;;;;5.17;3.07;;;;;;;;;;5010163;28;20217;-60
2021/06/20 00:38:32;;;;;;;4.77;3.40;;;;;;;;;;5018278;28;20210;-60
2021/06/20 00:40:58;;;;;;;4.70;2.87;;;;;;;;;;5016900;28;20185;-59
2021/06/20 00:43:24;;;;;;;5.90;3.50;;;;;;;;;;5010168;28;20527;-58
2021/06/20 00:45:50;;;;;;;3.47;2.87;;;;;;;;;;4997639;28;20194;-61
2021/06/20 00:48:17;;;;;;;3.43;3.10;;;;;;;;;;5018119;28;20193;-59
2021/06/20 00:50:43;;;;;;;2.97;2.30;;;;;;;;;;5011509;28;20581;-59
2021/06/20 00:53:09;;;;;;;3.33;2.40;;;;;;;;;;5010479;28;20237;-59
2021/06/20 00:55:39;;;;;;;4.30;3.00;;;;;;;;;;5009464;28;20557;-59
2021/06/20 00:58:07;;;;;;;6.13;2.63;;;;;;;;;;5026197;28;20208;-60
2021/06/20 01:00:34;;;;;;;3.67;2.80;;;;;;;;;;5012112;28;20584;-58
2021/06/20 01:03:00;;;;;;;3.70;3.10;;;;;;;;;;5011668;28;20543;-60
2021/06/20 01:05:26;;;;;;;5.17;2.97;;;;;;;;;;5011343;28;20187;-60
2021/06/20 01:07:53;;;;;;;4.50;2.83;;;;;;;;;;5011923;28;20274;-59
2021/06/20 01:10:20;;;;;;;3.17;2.60;;;;;;;;;;5011347;28;20181;-60
2021/06/20 01:12:47;;;;;;;3.47;2.80;;;;;;;;;;5012811;28;20175;-60
2021/06/20 01:15:14;;;;;;;3.30;3.00;;;;;;;;;;5012805;28;20182;-60
2021/06/20 01:17:40;;;;;;;4.70;2.93;;;;;;;;;;5011928;28;20187;-60
2021/06/20 01:20:08;;;;;;;5.07;3.20;;;;;;;;;;5011487;28;20176;-60
2021/06/20 01:22:35;;;;;;;4.43;2.97;;;;;;;;;;5024416;28;20189;-60
2021/06/20 01:25:05;;;;;;;2.53;2.33;;;;;;;;;;5011649;28;20183;-59
2021/06/20 01:27:36;;;;;;;3.13;2.70;;;;;;;;;;5012605;28;20620;-59
2021/06/20 01:30:03;;;;;;;5.73;2.90;;;;;;;;;;4992099;28;20181;-59
2021/06/20 01:32:30;;;;;;;5.40;2.77;;;;;;;;;;5005546;28;20296;-59
2021/06/20 01:34:56;;;;;;;5.90;2.93;;;;;;;;;;5011440;28;20664;-61
2021/06/20 01:37:22;;;;;;;5.97;2.77;;;;;;;;;;5011838;28;20170;-61
2021/06/20 01:39:48;;;;;;;5.23;2.67;;;;;;;;;;5011971;28;20516;-59
2021/06/20 01:42:15;;;;;;;3.60;2.47;;;;;;;;;;5010953;28;20184;-62
2021/06/20 01:44:59;;;;;;;3.30;2.40;;;;;;;;;;5012167;28;20220;-60
2021/06/20 01:47:29;;;;;;;4.57;2.73;;;;;;;;;;5012351;28;20210;-60
2021/06/20 01:49:56;;;;;;;4.70;3.03;;;;;;;;;;5002999;28;20186;-60
2021/06/20 01:52:22;;;;;;;3.50;2.67;;;;;;;;;;5010909;28;20187;-59
2021/06/20 01:54:53;;;;;;;6.03;3.27;;;;;;;;;;5009464;28;20187;-61
2021/06/20 01:57:29;;;;;;;3.30;2.50;;;;;;;;;;5008825;28;20564;-60
2021/06/20 01:59:56;;;;;;;2.50;2.30;;;;;;;;;;5015854;28;20194;-60
2021/06/20 02:02:23;;;;;;;3.57;2.47;;;;;;;;;;5011218;28;20178;-59
2021/06/20 02:04:50;;;;;;;6.50;3.23;;;;;;;;;;5010216;28;20176;-61
2021/06/20 02:07:17;;;;;;;3.97;2.37;;;;;;;;;;5008039;28;20220;-59
2021/06/20 02:09:43;;;;;;;4.83;2.40;;;;;;;;;;5010909;28;20528;-59
2021/06/20 02:12:10;;;;;;;3.03;2.20;;;;;;;;;;5012189;28;20188;-60
2021/06/20 02:14:37;;;;;;;5.70;3.00;;;;;;;;;;5012252;28;20202;-60
2021/06/20 02:17:11;;;;;;;3.00;2.70;;;;;;;;;;5013025;28;20183;-59
2021/06/20 02:19:37;;;;;;;2.87;2.30;;;;;;;;;;5011948;28;20196;-60
2021/06/20 02:22:03;;;;;;;5.72;2.63;;;;;;;;;;5011907;28;20422;-59
2021/06/20 02:24:29;;;;;;;3.70;2.00;;;;;;;;;;5009871;28;20171;-60
2021/06/20 02:26:55;;;;;;;5.80;2.53;;;;;;;;;;5011984;28;20186;-60
2021/06/20 02:29:21;;;;;;;5.70;2.20;;;;;;;;;;5011424;28;20187;-59
2021/06/20 02:31:49;;;;;;;2.83;2.20;;;;;;;;;;5012204;28;20190;-60
2021/06/20 02:34:15;;;;;;;4.93;2.60;;;;;;;;;;5010769;28;20197;-60
2021/06/20 02:36:41;;;;;;;4.07;2.33;;;;;;;;;;5010973;28;20186;-59
2021/06/20 02:39:07;;;;;;;2.83;2.07;;;;;;;;;;5010566;28;20206;-60
2021/06/20 02:41:33;;;;;;;3.30;1.97;;;;;;;;;;5010790;28;20174;-58
2021/06/20 02:43:59;;;;;;;8.40;2.47;;;;;;;;;;5025945;28;20194;-59
2021/06/20 02:46:25;;;;;;;5.00;2.20;;;;;;;;;;5010797;28;20660;-59
2021/06/20 02:48:51;;;;;;;3.73;2.30;;;;;;;;;;5009550;28;20198;-60
2021/06/20 02:51:17;;;;;;;3.33;2.23;;;;;;;;;;5010043;28;20182;-59
2021/06/20 02:53:43;;;;;;;3.87;2.60;;;;;;;;;;5010073;28;20182;-61
2021/06/20 02:56:09;;;;;;;5.03;2.63;;;;;;;;;;5008549;28;20174;-61
2021/06/20 02:58:35;;;;;;;6.43;2.63;;;;;;;;;;5010277;28;20205;-59
2021/06/20 03:01:01;;;;;;;5.37;2.13;;;;;;;;;;5009784;28;20187;-60
2021/06/20 03:03:27;;;;;;;5.13;2.43;;;;;;;;;;5009940;28;20178;-60
2021/06/20 03:05:53;;;;;;;3.27;2.23;;;;;;;;;;5009423;28;20636;-60
2021/06/20 03:08:19;;;;;;;2.87;2.23;;;;;;;;;;5009894;28;20229;-60
2021/06/20 03:10:45;;;;;;;7.00;2.80;;;;;;;;;;5008823;28;20193;-60
2021/06/20 03:13:11;;;;;;;3.90;2.70;;;;;;;;;;5014374;28;20198;-60
2021/06/20 03:15:38;;;;;;;6.87;3.17;;;;;;;;;;4991707;28;20182;-61
2021/06/20 03:18:05;;;;;;;4.63;2.40;;;;;;;;;;5010038;28;20220;-60
2021/06/20 03:20:31;;;;;;;6.23;2.90;;;;;;;;;;5009315;28;20956;-61
2021/06/20 03:22:57;;;;;;;5.37;2.80;;;;;;;;;;5009883;28;20335;-61
2021/06/20 03:25:23;;;;;;;6.50;2.63;;;;;;;;;;4993939;28;20183;-60
2021/06/20 03:27:49;;;;;;;11.47;3.23;;;;;;;;;;5013377;28;20256;-60
2021/06/20 03:30:15;;;;;;;2.73;2.40;;;;;;;;;;5013418;28;20205;-59
2021/06/20 03:32:42;;;;;;;5.17;2.80;;;;;;;;;;5013377;28;20599;-60
2021/06/20 03:35:09;;;;;;;5.70;2.70;;;;;;;;;;5011294;28;20206;-59
2021/06/20 03:37:35;;;;;;;6.73;3.13;;;;;;;;;;5013759;28;20181;-59
2021/06/20 03:40:01;;;;;;;3.93;2.77;;;;;;;;;;5013313;28;20179;-58
2021/06/20 03:42:27;;;;;;;7.03;2.90;;;;;;;;;;4995394;28;20285;-60
2021/06/20 03:44:53;;;;;;;7.87;2.53;;;;;;;;;;5013554;28;20317;-60
2021/06/20 03:47:19;;;;;;;3.27;2.50;;;;;;;;;;5011574;28;20276;-60
2021/06/20 03:49:45;;;;;;;4.10;2.90;;;;;;;;;;5027672;28;20272;-59
2021/06/20 03:52:11;;;;;;;4.87;2.80;;;;;;;;;;5013215;28;20228;-60
2021/06/20 03:54:37;;;;;;;4.87;3.13;;;;;;;;;;5012364;28;20201;-61
2021/06/20 03:57:03;;;;;;;6.00;3.40;;;;;;;;;;5013246;28;20175;-59
2021/06/20 03:59:29;;;;;;;4.20;3.03;;;;;;;;;;5012564;28;20208;-61
2021/06/20 04:01:55;;;;;;;3.93;2.77;;;;;;;;;;5028431;28;20184;-60
2021/06/20 04:04:21;;;;;;;3.67;2.77;;;;;;;;;;5010772;28;20293;-61
2021/06/20 04:06:48;;;;;;;5.83;3.50;;;;;;;;;;5012858;28;20216;-61
2021/06/20 04:09:14;;;;;;;6.10;3.23;;;;;;;;;;4993943;28;20221;-62
2021/06/20 04:11:40;;;;;;;5.37;3.53;;;;;;;;;;5012126;28;20193;-60
2021/06/20 04:14:06;;;;;;;5.43;2.90;;;;;;;;;;5010701;28;20268;-59
2021/06/20 04:16:32;;;;;;;5.27;3.17;;;;;;;;;;5013025;28;20189;-60
2021/06/20 04:19:00;;;;;;;5.60;2.90;;;;;;;;;;5011807;28;20242;-60
2021/06/20 04:21:26;;;;;;;5.63;3.00;;;;;;;;;;5012605;28;20171;-59
2021/06/20 04:23:52;;;;;;;4.17;2.80;;;;;;;;;;4994573;28;20195;-61
2021/06/20 04:26:18;;;;;;;4.53;3.17;;;;;;;;;;5012528;28;20235;-60
2021/06/20 04:28:44;;;;;;;5.47;3.00;;;;;;;;;;5012489;28;20181;-60
2021/06/20 04:31:10;;;;;;;4.00;3.10;;;;;;;;;;4994846;28;20197;-58
2021/06/20 04:33:36;;;;;;;3.87;2.53;;;;;;;;;;5011683;28;20185;-60
2021/06/20 04:36:02;;;;;;;3.37;2.53;;;;;;;;;;5011148;28;20817;-60
2021/06/20 04:38:28;;;;;;;5.43;2.90;;;;;;;;;;5018411;28;20564;-60
2021/06/20 04:40:59;;;;;;;3.73;2.87;;;;;;;;;;4993908;28;20188;-59
2021/06/20 04:44:42;;;;;;;5.37;2.57;;;;;;;;;;5012170;28;20637;-59
2021/06/20 04:46:22;;;;;;;3.83;2.33;;;;;;;;;;5008332;28;20184;-59
2021/06/20 04:48:49;;;;;;;3.00;2.70;;;;;;;;;;5027713;28;20208;-59
2021/06/20 04:51:15;;;;;;;4.80;2.87;;;;;;;;;;5011918;28;20186;-59
2021/06/20 04:53:41;;;;;;;4.40;2.70;;;;;;;;;;4992790;28;20185;-60
2021/06/20 04:56:07;;;;;;;5.90;2.43;;;;;;;;;;5011498;28;20213;-60
2021/06/20 04:58:33;;;;;;;2.50;2.30;;;;;;;;;;5011235;28;20204;-61
2021/06/20 05:00:59;;;;;;;3.90;2.87;;;;;;;;;;5011233;28;20231;-60
2021/06/20 05:03:25;;;;;;;3.77;2.47;;;;;;;;;;5010533;28;20213;-60
2021/06/20 05:05:51;;;;;;;5.03;2.20;;;;;;;;;;5009908;28;20212;-59
2021/06/20 05:08:17;;;;;;;2.67;2.33;;;;;;;;;;5010779;28;20254;-59
2021/06/20 05:10:43;;;;;;;6.13;2.60;;;;;;;;;;5010934;28;20302;-60
2021/06/20 05:13:09;;;;;;;3.10;2.50;;;;;;;;;;5011511;28;20557;-60
2021/06/20 05:15:35;;;;;;;3.13;2.07;;;;;;;;;;5011525;28;20213;-60
2021/06/20 05:18:01;;;;;;;2.00;1.90;;;;;;;;;;5010751;28;20272;-59
2021/06/20 05:20:27;;;;;;;2.67;2.20;;;;;;;;;;4993067;28;20653;-60
2021/06/20 05:22:53;;;;;;;2.83;2.40;;;;;;;;;;5010520;28;20727;-61
2021/06/20 05:25:19;;;;;;;3.87;2.37;;;;;;;;;;5010422;28;20214;-61
2021/06/20 05:27:46;;;;;;;3.17;1.97;;;;;;;;;;5009769;28;20174;-60
2021/06/20 05:30:12;;;;;;;2.77;1.90;;;;;;;;;;5010430;28;20183;-60
2021/06/20 05:32:38;;;;;;;2.40;2.20;;;;;;;;;;5010827;28;20179;-61
2021/06/20 05:35:05;;;;;;;2.30;1.90;;;;;;;;;;5008898;28;20540;-61
2021/06/20 05:37:31;;;;;;;4.10;2.00;;;;;;;;;;5010627;28;20249;-62
2021/06/20 05:39:57;;;;;;;3.20;2.30;;;;;;;;;;4993533;28;20214;-61
2021/06/20 05:42:23;;;;;;;2.47;2.23;;;;;;;;;;5025699;28;20183;-61
2021/06/20 05:44:49;;;;;;;2.10;1.87;;;;;;;;;;5009573;28;20186;-61
2021/06/20 05:47:15;;;;;;;3.53;2.30;;;;;;;;;;5009512;28;20185;-61
2021/06/20 05:49:41;;;;;;;5.50;1.97;;;;;;;;;;5006961;28;20189;-61
2021/06/20 05:52:07;;;;;;;2.97;1.97;;;;;;;;;;4992054;28;20186;-61
2021/06/20 05:54:33;;;;;;;3.50;2.27;;;;;;;;;;4991831;28;20188;-60
2021/06/20 05:56:59;;;;;;;2.57;2.10;;;;;;;;;;5009885;28;20533;-63
2021/06/20 05:59:25;;;;;;;4.47;2.27;;;;;;;;;;4990428;28;20202;-63
2021/06/20 06:01:51;;;;;;;6.27;2.30;;;;;;;;;;5007053;28;20183;-61
2021/06/20 06:04:17;;;;;;;2.77;2.27;;;;;;;;;;5009161;28;20567;-61
2021/06/20 06:06:43;;;;;;;3.13;2.20;;;;;;;;;;5022991;28;20207;-59
2021/06/20 06:09:09;;;;;;;2.43;2.23;;;;;;;;;;5024961;28;20222;-62
2021/06/20 06:11:35;;;;;;;3.33;2.20;;;;;;;;;;5009142;28;20202;-61
2021/06/20 06:14:01;;;;;;;3.87;2.60;;;;;;;;;;5009992;28;20218;-61
2021/06/20 06:16:27;;;;;;;4.47;2.40;;;;;;;;;;5010276;28;20647;-61
2021/06/20 06:18:53;;;;;;;4.60;2.83;;;;;;;;;;5024711;28;20289;-62
2021/06/20 06:21:19;;;;;;;4.77;2.33;;;;;;;;;;5009723;28;20266;-63
2021/06/20 06:23:45;;;;;;;5.27;3.20;;;;;;;;;;4992312;28;20594;-61
2021/06/20 06:26:11;;;;;;;4.67;2.77;;;;;;;;;;5009055;28;20182;-61
2021/06/20 06:28:37;;;;;;;4.10;2.73;;;;;;;;;;5008758;28;20198;-62
2021/06/20 06:31:03;;;;;;;5.67;2.70;;;;;;;;;;5007517;28;20277;-62
2021/06/20 06:33:30;;;;;;;5.23;2.67;;;;;;;;;;5022305;28;20193;-61
2021/06/20 06:35:56;;;;;;;3.67;2.57;;;;;;;;;;5009979;28;20196;-62
2021/06/20 06:38:22;;;;;;;3.63;2.70;;;;;;;;;;4988654;28;20201;-61
2021/06/20 06:40:48;;;;;;;3.40;2.63;;;;;;;;;;5007894;28;20177;-61
2021/06/20 06:43:14;;;;;;;3.60;3.17;;;;;;;;;;5008739;28;20615;-62
2021/06/20 06:45:40;;;;;;;6.43;2.97;;;;;;;;;;5009554;28;20178;-61
2021/06/20 06:48:07;;;;;;;4.23;2.63;;;;;;;;;;5008622;28;20182;-60
2021/06/20 06:50:33;;;;;;;4.00;2.70;;;;;;;;;;5008461;28;20189;-60
2021/06/20 06:52:59;;;;;;;3.57;2.80;;;;;;;;;;5024041;28;20185;-59
2021/06/20 06:55:25;;;;;;;3.97;2.40;;;;;;;;;;5008947;28;20198;-60
2021/06/20 06:57:51;;;;;;;5.53;3.13;;;;;;;;;;5008323;28;20230;-59
2021/06/20 07:00:18;;;;;;;2.73;2.53;;;;;;;;;;5010493;28;20186;-61
2021/06/20 07:02:44;;;;;;;3.00;2.70;;;;;;;;;;5012598;28;20274;-59
2021/06/20 07:05:10;;;;;;;3.30;2.50;;;;;;;;;;5013874;28;20183;-58
2021/06/20 07:07:36;;;;;;;3.17;2.50;;;;;;;;;;5011781;28;20244;-59
2021/06/20 07:10:03;;;;;;;5.13;2.87;;;;;;;;;;5013803;28;20191;-59
2021/06/20 07:12:30;;;;;;;2.90;2.70;;;;;;;;;;5028485;28;20188;-60
2021/06/20 07:14:56;;;;;;;3.60;2.57;;;;;;;;;;4987077;28;20187;-60
2021/06/20 07:17:22;;;;;;;5.80;2.27;;;;;;;;;;5013889;28;20733;-58
2021/06/20 07:19:49;;;;;;;4.00;2.30;;;;;;;;;;5022311;28;20200;-59
2021/06/20 07:22:15;;;;;;;5.77;3.00;;;;;;;;;;5015744;28;20212;-61
2021/06/20 07:24:41;;;;;;;3.00;2.63;;;;;;;;;;5010459;28;20216;-60
2021/06/20 07:27:07;;;;;;;2.50;2.30;;;;;;;;;;5012425;28;20191;-59
2021/06/20 07:29:33;;;;;;;2.53;2.20;;;;;;;;;;5011295;28;20190;-59
2021/06/20 07:31:59;;;;;;;4.17;2.30;;;;;;;;;;5028602;28;20548;-57
2021/06/20 07:34:25;;;;;;;2.57;2.23;;;;;;;;;;5011752;28;20259;-60
2021/06/20 07:36:51;;;;;;;4.53;2.53;;;;;;;;;;5011619;28;20183;-59
2021/06/20 07:39:17;;;;;;;6.47;2.30;;;;;;;;;;5011664;28;20326;-61
2021/06/20 07:41:44;;;;;;;2.57;2.20;;;;;;;;;;5025694;28;20185;-59
2021/06/20 07:44:10;;;;;;;2.67;2.17;;;;;;;;;;4992768;28;20186;-61
2021/06/20 07:46:36;;;;;;;2.30;2.10;;;;;;;;;;5011926;28;20191;-61
2021/06/20 07:49:02;;;;;;;5.33;2.40;;;;;;;;;;5012538;28;20545;-61
2021/06/20 07:51:28;;;;;;;2.30;2.07;;;;;;;;;;5012097;28;20207;-60
2021/06/20 07:53:54;;;;;;;3.10;2.40;;;;;;;;;;5012949;28;20186;-58
2021/06/20 07:56:20;;;;;;;2.43;2.23;;;;;;;;;;4994415;28;20619;-57
2021/06/20 07:58:46;;;;;;;3.37;1.93;;;;;;;;;;5012259;28;20205;-58
2021/06/20 08:01:12;;;;;;;3.93;2.33;;;;;;;;;;5011503;28;20652;-57
2021/06/20 08:03:38;;;;;;;2.73;1.93;;;;;;;;;;5010798;28;20176;-58
2021/06/20 08:06:04;;;;;;;4.53;2.50;;;;;;;;;;5009847;28;20213;-58
2021/06/20 08:08:30;;;;;;;3.17;2.30;;;;;;;;;;5011808;28;20214;-57
2021/06/20 08:10:57;;;;;;;1.97;1.87;;;;;;;;;;5011912;28;20185;-61
2021/06/20 08:13:23;;;;;;;2.33;2.17;;;;;;;;;;5011409;28;20193;-59
2021/06/20 08:15:49;;;;;;;3.83;2.30;;;;;;;;;;5011652;28;20234;-60
2021/06/20 08:18:15;;;;;;;2.43;1.90;;;;;;;;;;5011854;28;20591;-62
2021/06/20 08:20:42;;;;;;;2.40;2.20;;;;;;;;;;5010206;28;20296;-61
2021/06/20 08:23:08;;;;;;;2.73;1.80;;;;;;;;;;5011404;28;20177;-58
2021/06/20 08:25:34;;;;;;;3.97;2.23;;;;;;;;;;4989691;28;20239;-57
2021/06/20 08:28:00;;;;;;;7.60;2.63;;;;;;;;;;5011609;28;20672;-59
2021/06/20 08:30:26;;;;;;;4.73;2.33;;;;;;;;;;5010240;28;20212;-59
2021/06/20 08:32:52;;;;;;;3.27;1.90;;;;;;;;;;5022691;28;20200;-61
2021/06/20 08:35:19;;;;;;;3.73;1.80;;;;;;;;;;5005016;28;20220;-60
2021/06/20 08:37:46;;;;;;;2.10;1.90;;;;;;;;;;4993726;28;20613;-58
2021/06/20 08:40:12;;;;;;;2.60;2.33;;;;;;;;;;5011686;28;20184;-58
2021/06/20 08:42:38;;;;;;;3.93;1.90;;;;;;;;;;5010316;28;20181;-58
2021/06/20 08:45:05;;;;;;;4.37;2.10;;;;;;;;;;4992284;28;20178;-57
2021/06/20 08:47:32;;;;;;;2.37;2.10;;;;;;;;;;5010453;28;20245;-58
2021/06/20 08:49:58;;;;;;;2.73;2.00;;;;;;;;;;5007898;28;20262;-59
2021/06/20 08:52:24;;;;;;;3.43;1.70;;;;;;;;;;5010510;28;20182;-57
2021/06/20 08:55:04;;;;;;;2.50;1.97;;;;;;;;;;5011921;28;20174;-58
2021/06/20 08:57:41;;;;;;;3.33;1.80;;;;;;;;;;5007696;28;20461;-58
2021/06/20 09:00:09;;;;;;;1.43;1.33;;;;;;;;;;5018120;28;20398;-59
2021/06/20 09:02:35;;;;;;;2.23;1.80;;;;;;;;;;5012193;28;20171;-58
2021/06/20 09:05:02;;;;;;;1.90;1.80;;;;;;;;;;4993795;28;20711;-58
2021/06/20 09:07:29;;;;;;;3.30;1.57;;;;;;;;;;5011383;28;20214;-60
2021/06/20 09:09:55;;;;;;;1.90;1.60;;;;;;;;;;4993066;28;20633;-58
2021/06/20 09:12:21;;;;;;;2.07;1.70;;;;;;;;;;5023453;28;20186;-58
2021/06/20 09:14:48;;;;;;;2.37;1.60;;;;;;;;;;4992555;28;20194;-61
2021/06/20 09:17:24;;;;;;;2.50;1.50;;;;;;;;;;5011824;28;20273;-59
2021/06/20 09:19:55;;;;;;;3.73;1.93;;;;;;;;;;5009203;28;20237;-57
2021/06/20 09:22:21;;;;;;;2.90;1.70;;;;;;;;;;4992817;28;20510;-57
2021/06/20 09:24:59;;;;;;;2.17;1.70;;;;;;;;;;5026245;28;20187;-60
2021/06/20 09:27:25;;;;;;;1.97;1.80;;;;;;;;;;5010095;28;20697;-57
2021/06/20 09:29:51;;;;;;;2.10;1.60;;;;;;;;;;5009191;28;20190;-59
2021/06/20 09:32:18;;;;;;;1.90;1.70;;;;;;;;;;5008837;28;20191;-62
2021/06/20 09:34:44;;;;;;;3.37;2.10;;;;;;;;;;5007315;28;20193;-60
2021/06/20 09:37:11;;;;;;;2.13;1.90;;;;;;;;;;5016948;28;20177;-58
2021/06/20 09:39:37;;;;;;;1.87;1.70;;;;;;;;;;5017288;28;20313;-59
2021/06/20 09:42:05;;;;;;;1.60;1.50;;;;;;;;;;5011605;28;20207;-58
2021/06/20 09:44:41;;;;;;;2.70;1.60;;;;;;;;;;5013926;28;20667;-60
2021/06/20 09:47:09;;;;;;;2.00;1.80;;;;;;;;;;4994147;28;20548;-60
2021/06/20 09:49:36;;;;;;;3.37;1.83;;;;;;;;;;5017350;28;20189;-59
2021/06/20 09:52:03;;;;;;;3.57;1.90;;;;;;;;;;5024147;28;20197;-59
2021/06/20 09:54:32;;;;;;;5.27;2.10;;;;;;;;;;5020685;28;20205;-60
2021/06/20 09:56:58;;;;;;;2.40;1.77;;;;;;;;;;5013102;28;20194;-61
2021/06/20 09:59:28;;;;;;;2.93;1.93;;;;;;;;;;5012946;28;20710;-60
2021/06/20 10:01:54;;;;;;;3.73;1.57;;;;;;;;;;4999730;28;20610;-60
2021/06/20 10:04:21;;;;;;;3.37;1.60;;;;;;;;;;5009501;28;20217;-59
2021/06/20 10:06:47;;;;;;;3.13;1.40;;;;;;;;;;5012041;28;20264;-59
2021/06/20 10:09:13;;;;;;;2.53;1.63;;;;;;;;;;5015220;28;20229;-56
2021/06/20 10:11:39;;;;;;;2.80;1.57;;;;;;;;;;5021325;28;20205;-57
2021/06/20 10:14:05;;;;;;;1.90;1.50;;;;;;;;;;5009884;28;20190;-56
2021/06/20 10:16:37;;;;;;;1.50;1.40;;;;;;;;;;5009497;28;20184;-56
2021/06/20 10:19:13;;;;;;;2.30;1.60;;;;;;;;;;5012323;28;20238;-58
2021/06/20 10:21:40;;;;;;;6.80;1.97;;;;;;;;;;5007961;28;20864;-58
2021/06/20 10:24:08;;;;;;;2.33;2.13;;;;;;;;;;5010458;28;20187;-57
2021/06/20 10:26:34;;;;;;;1.50;1.40;;;;;;;;;;5009780;28;20191;-58
2021/06/20 10:29:02;;;;;;;4.47;1.87;;;;;;;;;;5009729;28;20711;-58
2021/06/20 10:31:35;;;;;;;1.50;1.40;;;;;;;;;;5020527;28;20547;-56
2021/06/20 10:34:21;;;;;;;1.73;1.57;;;;;;;;;;4989871;28;20182;-59
2021/06/20 10:36:48;;;;;;;4.50;2.10;;;;;;;;;;5011572;28;20260;-59
2021/06/20 10:39:15;;;;;;;1.60;1.50;;;;;;;;;;5014403;28;20194;-57
2021/06/20 10:41:41;;;;;;;1.70;1.60;;;;;;;;;;5009216;28;20313;-56
2021/06/20 10:44:07;;;;;;;1.97;1.77;;;;;;;;;;5011053;28;20219;-56
2021/06/20 10:46:35;;;;;;;1.50;1.40;;;;;;;;;;5010364;28;20185;-57
2021/06/20 10:49:12;;;;;;;4.50;1.60;;;;;;;;;;5009712;28;20509;-55
2021/06/20 10:51:38;;;;;;;2.33;1.87;;;;;;;;;;4991934;28;20657;-56
2021/06/20 10:54:05;;;;;;;2.47;1.97;;;;;;;;;;5009423;28;20182;-57
2021/06/20 10:56:31;;;;;;;1.73;1.63;;;;;;;;;;5011249;28;20205;-57
2021/06/20 10:58:57;;;;;;;4.53;1.77;;;;;;;;;;5012355;28;20729;-55
2021/06/20 11:01:27;;;;;;;2.17;1.77;;;;;;;;;;5027918;28;20625;-55
2021/06/20 11:03:53;;;;;;;3.20;1.70;;;;;;;;;;5009182;28;20187;-57
2021/06/20 11:06:20;;;;;;;1.70;1.60;;;;;;;;;;5013458;28;20201;-55
2021/06/20 11:09:00;;;;;;;1.50;1.37;;;;;;;;;;5008013;28;20218;-55
2021/06/20 11:11:27;;;;;;;2.07;1.50;;;;;;;;;;5020798;28;20196;-56
2021/06/20 11:13:56;;;;;;;1.43;1.33;;;;;;;;;;5012208;28;20623;-56
2021/06/20 11:16:49;;;;;;;1.73;1.63;;;;;;;;;;5006342;28;20196;-56
2021/06/20 11:19:25;;;;;;;2.17;1.57;;;;;;;;;;5009397;28;20217;-57
2021/06/20 11:21:54;;;;;;;3.67;1.60;;;;;;;;;;5015471;28;20264;-56
2021/06/20 11:24:40;;;;;;;1.83;1.73;;;;;;;;;;5010942;28;20195;-58
2021/06/20 11:27:07;;;;;;;1.93;1.73;;;;;;;;;;5008361;28;20673;-58
2021/06/20 11:29:38;;;;;;;1.40;1.30;;;;;;;;;;5010888;28;20191;-57
2021/06/20 11:32:05;;;;;;;3.33;1.60;;;;;;;;;;5009207;28;20549;-57
2021/06/20 11:34:31;;;;;;;6.47;2.00;;;;;;;;;;5009023;28;20188;-57
2021/06/20 11:36:57;;;;;;;4.47;2.00;;;;;;;;;;5009857;28;20197;-57
2021/06/20 11:39:23;;;;;;;5.40;2.07;;;;;;;;;;5024812;28;20209;-57
2021/06/20 11:41:51;;;;;;;2.97;1.57;;;;;;;;;;5009776;28;20590;-56
2021/06/20 11:44:18;;;;;;;3.07;1.60;;;;;;;;;;5009510;28;20334;-57
2021/06/20 11:46:46;;;;;;;2.00;1.90;;;;;;;;;;5012863;28;20178;-56
2021/06/20 11:49:13;;;;;;;2.77;1.40;;;;;;;;;;5013690;28;20537;-57
2021/06/20 11:51:49;;;;;;;2.67;1.90;;;;;;;;;;5013184;28;20189;-58
2021/06/20 11:54:18;;;;;;;1.93;1.70;;;;;;;;;;5012915;28;20177;-58
2021/06/20 11:56:45;;;;;;;2.73;2.30;;;;;;;;;;5013406;28;20184;-57
2021/06/20 11:59:12;;;;;;;1.80;1.70;;;;;;;;;;5013279;28;20670;-58
2021/06/20 12:01:56;;;;;;;3.07;1.80;;;;;;;;;;5013803;28;20197;-59
2021/06/20 12:04:23;;;;;;;2.27;1.73;;;;;;;;;;5012832;28;20181;-59
2021/06/20 12:06:50;;;;;;;1.80;1.47;;;;;;;;;;5013043;28;20218;-58
2021/06/20 12:09:16;;;;;;;3.30;1.70;;;;;;;;;;5012896;28;20216;-58
2021/06/20 12:11:42;;;;;;;1.50;1.40;;;;;;;;;;5013178;28;20183;-57
2021/06/20 12:14:20;;;;;;;3.90;1.80;;;;;;;;;;5013028;28;20283;-56
2021/06/20 12:16:47;;;;;;;2.00;1.57;;;;;;;;;;5028684;28;20256;-60
2021/06/20 12:19:17;;;;;;;2.20;1.70;;;;;;;;;;5012974;28;20210;-57
2021/06/20 12:21:44;;;;;;;2.77;2.20;;;;;;;;;;4994976;28;20194;-57
2021/06/20 12:24:13;;;;;;;2.80;1.67;;;;;;;;;;5013489;28;20949;-57
2021/06/20 12:26:47;;;;;;;1.70;1.60;;;;;;;;;;5009826;28;20583;-58
2021/06/20 12:29:14;;;;;;;1.43;1.33;;;;;;;;;;5020876;28;20174;-57
2021/06/20 12:31:40;;;;;;;2.20;2.10;;;;;;;;;;5028568;28;20182;-58
2021/06/20 12:34:08;;;;;;;2.20;1.63;;;;;;;;;;5012886;28;20189;-59
2021/06/20 12:36:35;;;;;;;3.47;1.83;;;;;;;;;;5012472;28;20507;-57
2021/06/20 12:39:01;;;;;;;1.73;1.60;;;;;;;;;;5028122;28;20221;-58
2021/06/20 12:41:29;;;;;;;4.63;1.63;;;;;;;;;;4994754;28;20186;-59
2021/06/20 12:44:02;;;;;;;2.93;1.57;;;;;;;;;;5013263;28;20227;-57
2021/06/20 12:46:33;;;;;;;2.87;1.73;;;;;;;;;;5012675;28;20578;-58
2021/06/20 12:49:10;;;;;;;3.33;1.67;;;;;;;;;;5012851;28;20651;-59
2021/06/20 12:51:38;;;;;;;1.77;1.40;;;;;;;;;;5012253;28;20190;-61
2021/06/20 12:54:05;;;;;;;2.00;1.50;;;;;;;;;;5012293;28;20709;-57
2021/06/20 12:56:31;;;;;;;1.83;1.73;;;;;;;;;;5027277;28;20257;-59
2021/06/20 12:58:58;;;;;;;2.33;1.50;;;;;;;;;;5012395;28;20210;-58
2021/06/20 13:01:24;;;;;;;1.70;1.60;;;;;;;;;;5012929;28;20747;-58
2021/06/20 13:03:51;;;;;;;1.87;1.40;;;;;;;;;;5011952;28;20516;-59
2021/06/20 13:06:17;;;;;;;3.20;2.03;;;;;;;;;;5011268;28;21083;-60
2021/06/20 13:08:43;;;;;;;2.00;1.80;;;;;;;;;;4995855;28;20223;-57
2021/06/20 13:11:09;;;;;;;1.70;1.60;;;;;;;;;;4991492;28;20185;-59
2021/06/20 13:13:35;;;;;;;1.50;1.40;;;;;;;;;;4991028;28;20187;-57
2021/06/20 13:16:01;;;;;;;2.03;1.43;;;;;;;;;;4992055;28;20228;-58
2021/06/20 13:18:27;;;;;;;2.67;1.50;;;;;;;;;;4991005;28;20565;-60
2021/06/20 13:20:53;;;;;;;2.10;1.83;;;;;;;;;;4991496;28;20276;-57
2021/06/20 13:23:20;;;;;;;1.30;1.20;;;;;;;;;;4991272;28;20186;-59
2021/06/20 13:25:50;;;;;;;3.60;1.70;;;;;;;;;;5006832;28;20545;-59
2021/06/20 13:28:16;;;;;;;1.50;1.40;;;;;;;;;;4987209;28;20186;-59
2021/06/20 13:30:42;;;;;;;1.60;1.50;;;;;;;;;;4989577;28;20180;-61
2021/06/20 13:33:08;;;;;;;1.60;1.50;;;;;;;;;;4988359;28;20182;-60
2021/06/20 13:35:34;;;;;;;1.90;1.47;;;;;;;;;;4988887;28;20192;-59
2021/06/20 13:38:00;;;;;;;2.27;1.50;;;;;;;;;;4989219;28;20648;-60
2021/06/20 13:40:28;;;;;;;6.13;1.80;;;;;;;;;;4957979;28;20612;-60
2021/06/20 13:42:55;;;;;;;1.53;1.30;;;;;;;;;;4972087;28;20178;-60
2021/06/20 13:45:22;;;;;;;5.03;2.07;;;;;;;;;;4991212;28;20193;-59
2021/06/20 13:47:48;;;;;;;2.33;2.13;;;;;;;;;;5010678;28;20204;-61
2021/06/20 13:50:15;;;;;;;3.10;1.80;;;;;;;;;;5007744;28;20530;-60
2021/06/20 13:52:41;;;;;;;1.83;1.73;;;;;;;;;;4974144;28;20209;-62
2021/06/20 13:55:09;;;;;;;3.57;1.93;;;;;;;;;;4996266;28;20179;-61
2021/06/20 13:57:35;;;;;;;2.43;1.67;;;;;;;;;;4993194;28;20567;-61
2021/06/20 14:00:02;;;;;;;3.30;1.87;;;;;;;;;;4990002;28;20287;-60
2021/06/20 14:02:28;;;;;;;1.90;1.77;;;;;;;;;;4988534;28;20190;-60
2021/06/20 14:04:54;;;;;;;2.47;1.73;;;;;;;;;;4969838;28;20183;-60
2021/06/20 14:07:21;;;;;;;2.10;1.90;;;;;;;;;;4966094;28;20234;-61
2021/06/20 14:09:47;;;;;;;2.00;1.80;;;;;;;;;;4983707;28;20289;-60
2021/06/20 14:12:14;;;;;;;1.93;1.80;;;;;;;;;;4952182;28;20262;-62
2021/06/20 14:14:40;;;;;;;3.57;1.73;;;;;;;;;;4952545;28;20198;-60
2021/06/20 14:17:06;;;;;;;2.30;1.63;;;;;;;;;;4954217;28;20386;-59
2021/06/20 14:19:32;;;;;;;2.87;1.83;;;;;;;;;;4967086;28;20226;-60
2021/06/20 14:21:58;;;;;;;2.97;1.97;;;;;;;;;;4969405;28;20277;-58
2021/06/20 14:24:24;;;;;;;2.37;2.17;;;;;;;;;;4969893;28;20191;-62
2021/06/20 14:26:52;;;;;;;5.37;2.57;;;;;;;;;;4984720;28;20218;-61
2021/06/20 14:29:18;;;;;;;4.93;2.90;;;;;;;;;;4971227;28;20278;-60
2021/06/20 14:31:44;;;;;;;3.63;2.43;;;;;;;;;;4973805;28;20219;-59
2021/06/20 14:34:10;;;;;;;2.53;2.33;;;;;;;;;;4954305;28;20210;-61
2021/06/20 14:36:37;;;;;;;4.20;3.27;;;;;;;;;;4952069;28;20244;-58
2021/06/20 14:39:04;;;;;;;3.17;1.80;;;;;;;;;;4981477;28;20234;-58
2021/06/20 14:41:30;;;;;;;2.13;1.90;;;;;;;;;;4953890;28;20186;-57
2021/06/20 14:43:56;;;;;;;3.40;2.00;;;;;;;;;;4970908;28;20191;-58